Marion, IN (46953)

6:23 AM EDT on August 28, 2016 (GMT -0400)
| | Change Station
Active Advisory: Special Statement Active Notice: Record Report

Elev -9999 ft 0.00 °N, 0.00 °E | Updated

Partly Cloudy
Partly Cloudy
68 °F
Feels Like 68 °F
N
0
Wind Variable Wind from WNW
Gusts mph

Today
High -- | Low -- °F
--% Chance of Precip.
Yesterday
High -- | Low -- °F
Precip. -- in
Pressure 30.18 in
Visibility 3.0 miles
Clouds Scattered Clouds 9500 ft
Dew Point 68 °F
Humidity 99%
Rainfall --
Snow Depth Not available.
7:06 AM 8:20 PM
Waning Crescent, 17% visible
METAR KMZZ 281015Z AUTO 11003KT 3SM BR SCT095 20/20 A3018 RMK AO2 T01970197
Pressure 30.18 in
Visibility 3.0 miles
Clouds Scattered Clouds 9500 ft
Dew Point 68 °F
Humidity 99%
Rainfall --
Snow Depth Not available.
7:06 AM 8:20 PM
Waning Crescent, 17% visible
METAR KMZZ 281015Z AUTO 11003KT 3SM BR SCT095 20/20 A3018 RMK AO2 T01970197

10-Day Weather Forecast

Almanac

Astronomy

Aug. 28, 2016 Rise Set
Actual Time
Civil Twilight
Nautical Twilight
Astronomical Twilight
Moon
Length of Visible Light
Length of Day
Tomorrow will be .
, % of the Moon is Illuminated

Today's Extremes

State Highs State Lows

Community

WunderPhotos

Upload Photos

1,935,541 photos uploaded!

WunderBlog® & News

Nearby

Air Quality

  Air Quality AQ Index Pollutant
Not available.

Snow Depth

Station Depth Elevation

Earthquake Activity

City Distance Mag. Time & Date
Minimum magnitude displayed is 2.5.

Coastal Water Temperatures

Place Temperature

Stations

Nearby Weather Stations

Station Location Temp. Windchill Dew Point Humidity Wind Precip. Elev Updated Type
                   

Watches & Warnings

Special Statement
Issued: 3:37 AM CDT Aug. 28, 2016 – National Weather Service

Patchy dense fog is expected early this morning, mainly in rural,
low lying portions of the area. Visibility in the fog may be as
low as a quarter mile or less. The fog should quickly burn off
after sunrise with visibilities improving significantly by 9am EDT.
In the meantime, motorists should use extra caution and be
prepared to slow down when fog banks are encountered.


437 am EDT sun Aug 28 2016 /337 am CDT sun Aug 28 2016/

Patchy dense fog is expected early this morning, mainly in rural,
low lying portions of the area. Visibility in the fog may be as
low as a quarter mile or less. The fog should quickly burn off
after sunrise with visibilities improving significantly by 9am EDT.
In the meantime, motorists should use extra caution and be
prepared to slow down when fog banks are encountered.